Terminal Aerodrome Forecast
Issued by NWS Topeka, KS

Home | Current Version | Previous Version | Text Only | Print | Product List | Glossary On
Versions: 1 2 3 4 5 6 7 8 9 10 11 12 13 14 15 16 17 18 19 20 21 22 23 24 25 26 27
212
FTUS43 KTOP 280520
TAFTOP
TAF
KTOP 280520Z 2806/2906 04005KT P6SM OVC025
     FM281000 05004KT P6SM OVC017
     FM281800 07010KT P6SM BKN025
     FM290200 07012KT P6SM OVC016=

USA.gov is the U.S. government's official web portal to all federal, state and local government web resources and services.